sensor_id;sensor_type;location;lat;lon;timestamp;pressure;altitude;pressure_sealevel;temperature;humidity
51083;BME280;37131;42.694;23.350;2022-11-09T00:01:19;96076.19;;;8.69;100.00
51083;BME280;37131;42.694;23.350;2022-11-09T00:03:45;96069.81;;;8.71;100.00
51083;BME280;37131;42.694;23.350;2022-11-09T00:06:10;96077.25;;;8.74;100.00
51083;BME280;37131;42.694;23.350;2022-11-09T00:08:37;96055.19;;;8.64;100.00
51083;BME280;37131;42.694;23.350;2022-11-09T00:11:08;96079.72;;;8.89;100.00
51083;BME280;37131;42.694;23.350;2022-11-09T00:13:35;96074.38;;;8.98;100.00
51083;BME280;37131;42.694;23.350;2022-11-09T00:16:01;96071.63;;;9.19;100.00
51083;BME280;37131;42.694;23.350;2022-11-09T00:18:27;96085.03;;;9.16;100.00
51083;BME280;37131;42.694;23.350;2022-11-09T00:20:53;96063.19;;;9.04;100.00
51083;BME280;37131;42.694;23.350;2022-11-09T00:23:18;96079.63;;;9.11;100.00
51083;BME280;37131;42.694;23.350;2022-11-09T00:25:44;96074.38;;;8.98;100.00
51083;BME280;37131;42.694;23.350;2022-11-09T00:28:10;96075.94;;;8.92;100.00
51083;BME280;37131;42.694;23.350;2022-11-09T00:30:35;96085.47;;;9.26;100.00
51083;BME280;37131;42.694;23.350;2022-11-09T00:33:00;96026.88;;;8.82;100.00
51083;BME280;37131;42.694;23.350;2022-11-09T00:35:26;96073.88;;;9.29;100.00
51083;BME280;37131;42.694;23.350;2022-11-09T00:37:51;96086.31;;;9.34;100.00
51083;BME280;37131;42.694;23.350;2022-11-09T00:40:17;96068.81;;;9.14;100.00
51083;BME280;37131;42.694;23.350;2022-11-09T00:42:42;96070.34;;;9.02;100.00
51083;BME280;37131;42.694;23.350;2022-11-09T00:45:08;96077.41;;;9.15;100.00
51083;BME280;37131;42.694;23.350;2022-11-09T00:47:33;96071.59;;;9.06;100.00
51083;BME280;37131;42.694;23.350;2022-11-09T00:49:58;96071.63;;;9.19;100.00
51083;BME280;37131;42.694;23.350;2022-11-09T00:52:24;96068.53;;;8.95;100.00
51083;BME280;37131;42.694;23.350;2022-11-09T00:54:49;96079.19;;;9.07;100.00
51083;BME280;37131;42.694;23.350;2022-11-09T00:57:14;96063.22;;;9.17;100.00
51083;BME280;37131;42.694;23.350;2022-11-09T00:59:41;96076.44;;;9.16;100.00
51083;BME280;37131;42.694;23.350;2022-11-09T01:02:06;96020.09;;;8.88;100.00
51083;BME280;37131;42.694;23.350;2022-11-09T01:04:32;96062.00;;;9.13;100.00
51083;BME280;37131;42.694;23.350;2022-11-09T01:06:57;96075.94;;;8.92;100.00
51083;BME280;37131;42.694;23.350;2022-11-09T01:09:22;96075.09;;;8.91;100.00
51083;BME280;37131;42.694;23.350;2022-11-09T01:11:48;96067.59;;;9.10;100.00
51083;BME280;37131;42.694;23.350;2022-11-09T01:14:13;96068.00;;;9.07;100.00
51083;BME280;37131;42.694;23.350;2022-11-09T01:16:38;96067.84;;;9.22;100.00
51083;BME280;37131;42.694;23.350;2022-11-09T01:19:04;96070.97;;;9.04;100.00
51083;BME280;37131;42.694;23.350;2022-11-09T01:21:29;96068.19;;;9.05;100.00
51083;BME280;37131;42.694;23.350;2022-11-09T01:23:55;96058.13;;;8.89;100.00
51083;BME280;37131;42.694;23.350;2022-11-09T01:26:22;96076.97;;;9.04;100.00
51083;BME280;37131;42.694;23.350;2022-11-09T01:28:48;96067.50;;;8.90;100.00
51083;BME280;37131;42.694;23.350;2022-11-09T01:31:16;96064.22;;;9.09;100.00
51083;BME280;37131;42.694;23.350;2022-11-09T01:33:42;96064.81;;;9.18;100.00
51083;BME280;37131;42.694;23.350;2022-11-09T01:36:13;96042.00;;;9.13;100.00
51083;BME280;37131;42.694;23.350;2022-11-09T01:38:39;96057.72;;;9.60;100.00
51083;BME280;37131;42.694;23.350;2022-11-09T01:41:06;96060.00;;;9.15;100.00
51083;BME280;37131;42.694;23.350;2022-11-09T01:43:32;96056.88;;;9.33;100.00
51083;BME280;37131;42.694;23.350;2022-11-09T01:48:51;96048.75;;;9.63;100.00
51083;BME280;37131;42.694;23.350;2022-11-09T01:53:46;96051.69;;;9.40;100.00
51083;BME280;37131;42.694;23.350;2022-11-09T01:56:14;96057.25;;;9.30;100.00
51083;BME280;37131;42.694;23.350;2022-11-09T01:58:43;96044.47;;;9.35;100.00
51083;BME280;37131;42.694;23.350;2022-11-09T02:01:11;96052.47;;;9.40;100.00
51083;BME280;37131;42.694;23.350;2022-11-09T02:03:49;96058.47;;;9.34;100.00
51083;BME280;37131;42.694;23.350;2022-11-09T02:06:17;96045.13;;;9.57;100.00
51083;BME280;37131;42.694;23.350;2022-11-09T02:08:45;96046.94;;;9.57;100.00
51083;BME280;37131;42.694;23.350;2022-11-09T02:11:15;96060.72;;;9.44;100.00
51083;BME280;37131;42.694;23.350;2022-11-09T02:13:44;96054.72;;;9.63;100.00
51083;BME280;37131;42.694;23.350;2022-11-09T02:16:12;96053.53;;;9.66;100.00
51083;BME280;37131;42.694;23.350;2022-11-09T02:18:43;96051.53;;;9.81;100.00
51083;BME280;37131;42.694;23.350;2022-11-09T02:21:11;96055.78;;;10.03;97.15
51083;BME280;37131;42.694;23.350;2022-11-09T02:23:37;96056.75;;;9.95;98.02
51083;BME280;37131;42.694;23.350;2022-11-09T02:26:06;96058.59;;;9.88;97.38
51083;BME280;37131;42.694;23.350;2022-11-09T02:28:34;96058.78;;;10.06;97.13
51083;BME280;37131;42.694;23.350;2022-11-09T02:31:01;96063.59;;;9.76;99.50
51083;BME280;37131;42.694;23.350;2022-11-09T02:33:26;96061.94;;;9.61;100.00
51083;BME280;37131;42.694;23.350;2022-11-09T02:35:52;96070.38;;;9.77;100.00
51083;BME280;37131;42.694;23.350;2022-11-09T02:38:17;96066.56;;;9.66;98.90
51083;BME280;37131;42.694;23.350;2022-11-09T02:40:47;96063.53;;;9.56;100.00
51083;BME280;37131;42.694;23.350;2022-11-09T02:43:14;96061.75;;;9.83;99.29
51083;BME280;37131;42.694;23.350;2022-11-09T02:45:41;96063.19;;;9.92;96.23
51083;BME280;37131;42.694;23.350;2022-11-09T02:48:06;96059.75;;;9.58;99.32
51083;BME280;37131;42.694;23.350;2022-11-09T02:50:31;96061.75;;;9.63;99.32
51083;BME280;37131;42.694;23.350;2022-11-09T02:52:57;96064.78;;;9.87;97.98
51083;BME280;37131;42.694;23.350;2022-11-09T02:55:22;96051.94;;;9.65;96.92
51083;BME280;37131;42.694;23.350;2022-11-09T02:57:48;96066.56;;;9.66;99.64
51083;BME280;37131;42.694;23.350;2022-11-09T03:00:14;96063.59;;;9.76;98.77
51083;BME280;37131;42.694;23.350;2022-11-09T03:02:40;96060.16;;;9.69;97.92
51083;BME280;37131;42.694;23.350;2022-11-09T03:05:06;96064.16;;;9.64;98.84
51083;BME280;37131;42.694;23.350;2022-11-09T03:07:31;96063.75;;;9.68;99.34
51083;BME280;37131;42.694;23.350;2022-11-09T03:09:57;96070.34;;;9.57;100.00
51083;BME280;37131;42.694;23.350;2022-11-09T03:12:22;96063.38;;;9.97;98.08
51083;BME280;37131;42.694;23.350;2022-11-09T03:15:02;96062.16;;;9.80;97.41
51083;BME280;37131;42.694;23.350;2022-11-09T03:17:28;96063.94;;;9.73;98.08
51083;BME280;37131;42.694;23.350;2022-11-09T03:19:54;96070.59;;;9.82;97.61
51083;BME280;37131;42.694;23.350;2022-11-09T03:22:20;96069.16;;;9.73;99.33
51083;BME280;37131;42.694;23.350;2022-11-09T03:24:45;96063.59;;;9.76;99.03
51083;BME280;37131;42.694;23.350;2022-11-09T03:27:11;96058.75;;;9.66;99.64
51083;BME280;37131;42.694;23.350;2022-11-09T03:29:37;96043.34;;;9.78;98.73
51083;BME280;37131;42.694;23.350;2022-11-09T03:32:02;96058.16;;;9.71;98.76
51083;BME280;37131;42.694;23.350;2022-11-09T03:34:28;96062.16;;;9.60;98.52
51083;BME280;37131;42.694;23.350;2022-11-09T03:36:53;96064.69;;;9.40;100.00
51083;BME280;37131;42.694;23.350;2022-11-09T03:39:18;96017.53;;;9.08;100.00
51083;BME280;37131;42.694;23.350;2022-11-09T03:41:44;96084.13;;;9.51;100.00
51083;BME280;37131;42.694;23.350;2022-11-09T03:44:09;96074.94;;;9.48;100.00
51083;BME280;37131;42.694;23.350;2022-11-09T03:46:35;96079.91;;;9.36;100.00
51083;BME280;37131;42.694;23.350;2022-11-09T03:49:00;96079.44;;;9.19;100.00
51083;BME280;37131;42.694;23.350;2022-11-09T03:51:25;96087.72;;;9.36;100.00
51083;BME280;37131;42.694;23.350;2022-11-09T03:53:51;96083.94;;;9.45;99.74
51083;BME280;37131;42.694;23.350;2022-11-09T03:56:16;96090.09;;;9.31;99.46
51083;BME280;37131;42.694;23.350;2022-11-09T03:58:42;96068.63;;;9.16;100.00
51083;BME280;37131;42.694;23.350;2022-11-09T04:01:07;95974.66;;;8.42;100.00
51083;BME280;37131;42.694;23.350;2022-11-09T04:03:33;96084.25;;;9.16;100.00
51083;BME280;37131;42.694;23.350;2022-11-09T04:05:58;96083.78;;;9.05;100.00
51083;BME280;37131;42.694;23.350;2022-11-09T04:08:24;95982.53;;;8.20;100.00
51083;BME280;37131;42.694;23.350;2022-11-09T04:10:49;96086.34;;;8.92;100.00
51083;BME280;37131;42.694;23.350;2022-11-09T04:13:15;96078.09;;;8.88;100.00
51083;BME280;37131;42.694;23.350;2022-11-09T04:15:41;96092.63;;;9.11;100.00
51083;BME280;37131;42.694;23.350;2022-11-09T04:18:10;96082.38;;;9.03;100.00
51083;BME280;37131;42.694;23.350;2022-11-09T04:20:37;96083.22;;;8.75;100.00
51083;BME280;37131;42.694;23.350;2022-11-09T04:23:04;96079.66;;;8.76;100.00
51083;BME280;37131;42.694;23.350;2022-11-09T04:25:35;96084.00;;;8.69;100.00
51083;BME280;37131;42.694;23.350;2022-11-09T04:28:02;96033.00;;;8.39;100.00
51083;BME280;37131;42.694;23.350;2022-11-09T04:30:29;96089.19;;;8.69;100.00
51083;BME280;37131;42.694;23.350;2022-11-09T04:32:57;96088.38;;;8.40;100.00
51083;BME280;37131;42.694;23.350;2022-11-09T04:35:23;96075.16;;;8.35;100.00
51083;BME280;37131;42.694;23.350;2022-11-09T04:37:56;96088.81;;;8.43;100.00
51083;BME280;37131;42.694;23.350;2022-11-09T04:40:23;96038.72;;;8.00;100.00
51083;BME280;37131;42.694;23.350;2022-11-09T04:42:49;96090.03;;;8.19;100.00
51083;BME280;37131;42.694;23.350;2022-11-09T04:45:14;96078.91;;;8.04;100.00
51083;BME280;37131;42.694;23.350;2022-11-09T04:47:40;96088.44;;;7.97;100.00
51083;BME280;37131;42.694;23.350;2022-11-09T04:50:06;96085.78;;;7.90;100.00
51083;BME280;37131;42.694;23.350;2022-11-09T04:52:31;96098.22;;;7.95;100.00
51083;BME280;37131;42.694;23.350;2022-11-09T04:54:57;96102.66;;;8.01;100.00
51083;BME280;37131;42.694;23.350;2022-11-09T04:57:22;96093.13;;;8.08;100.00
51083;BME280;37131;42.694;23.350;2022-11-09T04:59:48;96105.06;;;8.24;100.00
51083;BME280;37131;42.694;23.350;2022-11-09T05:02:13;96104.50;;;8.07;100.00
51083;BME280;37131;42.694;23.350;2022-11-09T05:04:38;96103.34;;;8.10;100.00
51083;BME280;37131;42.694;23.350;2022-11-09T05:07:04;96108.47;;;8.03;100.00
51083;BME280;37131;42.694;23.350;2022-11-09T05:09:29;96107.97;;;7.71;100.00
51083;BME280;37131;42.694;23.350;2022-11-09T05:11:54;96101.16;;;7.70;100.00
51083;BME280;37131;42.694;23.350;2022-11-09T05:14:20;96117.44;;;7.79;100.00
51083;BME280;37131;42.694;23.350;2022-11-09T05:16:45;96112.31;;;7.85;100.00
51083;BME280;37131;42.694;23.350;2022-11-09T05:19:11;96111.81;;;7.97;100.00
51083;BME280;37131;42.694;23.350;2022-11-09T05:21:36;96110.53;;;8.07;100.00
51083;BME280;37131;42.694;23.350;2022-11-09T05:24:01;96111.25;;;8.01;100.00
51083;BME280;37131;42.694;23.350;2022-11-09T05:26:36;96110.44;;;8.01;100.00
51083;BME280;37131;42.694;23.350;2022-11-09T05:29:07;96119.75;;;7.88;100.00
51083;BME280;37131;42.694;23.350;2022-11-09T05:31:34;96121.06;;;8.06;100.00
51083;BME280;37131;42.694;23.350;2022-11-09T05:34:00;96121.16;;;8.13;100.00
51083;BME280;37131;42.694;23.350;2022-11-09T05:36:27;96119.03;;;8.23;100.00
51083;BME280;37131;42.694;23.350;2022-11-09T05:38:53;96122.97;;;8.40;100.00
51083;BME280;37131;42.694;23.350;2022-11-09T05:41:19;96022.75;;;8.03;100.00
51083;BME280;37131;42.694;23.350;2022-11-09T05:43:44;96121.72;;;8.58;100.00
51083;BME280;37131;42.694;23.350;2022-11-09T05:46:12;96121.53;;;8.38;100.00
51083;BME280;37131;42.694;23.350;2022-11-09T05:48:38;96130.03;;;8.47;100.00
51083;BME280;37131;42.694;23.350;2022-11-09T05:51:04;96127.59;;;8.67;100.00
51083;BME280;37131;42.694;23.350;2022-11-09T05:53:31;96075.28;;;8.26;100.00
51083;BME280;37131;42.694;23.350;2022-11-09T05:56:01;96139.56;;;8.61;100.00
51083;BME280;37131;42.694;23.350;2022-11-09T05:58:27;96141.53;;;8.87;99.83
51083;BME280;37131;42.694;23.350;2022-11-09T06:00:53;96147.66;;;8.80;99.78
51083;BME280;37131;42.694;23.350;2022-11-09T06:03:18;96142.47;;;8.80;98.23
51083;BME280;37131;42.694;23.350;2022-11-09T06:05:43;96140.84;;;9.07;96.46
51083;BME280;37131;42.694;23.350;2022-11-09T06:08:11;96152.34;;;8.91;96.48
51083;BME280;37131;42.694;23.350;2022-11-09T06:10:37;96151.63;;;9.04;96.59
51083;BME280;37131;42.694;23.350;2022-11-09T06:13:02;96154.28;;;8.82;97.23
51083;BME280;37131;42.694;23.350;2022-11-09T06:15:28;96156.38;;;9.00;97.76
51083;BME280;37131;42.694;23.350;2022-11-09T06:17:54;96157.59;;;8.98;96.90
51083;BME280;37131;42.694;23.350;2022-11-09T06:20:21;96165.94;;;9.28;95.81
51083;BME280;37131;42.694;23.350;2022-11-09T06:22:54;96160.41;;;9.38;94.53
51083;BME280;37131;42.694;23.350;2022-11-09T06:25:20;96155.63;;;9.48;93.07
51083;BME280;37131;42.694;23.350;2022-11-09T06:27:46;96154.03;;;9.47;94.25
51083;BME280;37131;42.694;23.350;2022-11-09T06:30:12;96156.22;;;9.43;95.33
51083;BME280;37131;42.694;23.350;2022-11-09T06:32:38;96155.78;;;9.40;95.06
51083;BME280;37131;42.694;23.350;2022-11-09T06:35:03;96158.25;;;9.48;94.55
51083;BME280;37131;42.694;23.350;2022-11-09T06:37:29;96152.84;;;9.56;94.71
51083;BME280;37131;42.694;23.350;2022-11-09T06:39:54;96144.72;;;9.79;93.53
51083;BME280;37131;42.694;23.350;2022-11-09T06:42:20;96146.16;;;9.95;92.73
51083;BME280;37131;42.694;23.350;2022-11-09T06:44:45;96142.59;;;10.10;91.00
51083;BME280;37131;42.694;23.350;2022-11-09T06:47:10;96148.81;;;10.22;90.67
51083;BME280;37131;42.694;23.350;2022-11-09T06:49:36;96143.28;;;9.77;90.88
51083;BME280;37131;42.694;23.350;2022-11-09T06:52:01;96152.59;;;9.38;94.95
51083;BME280;37131;42.694;23.350;2022-11-09T06:54:27;96145.81;;;9.43;95.83
51083;BME280;37131;42.694;23.350;2022-11-09T06:56:53;96099.56;;;8.97;97.67
51083;BME280;37131;42.694;23.350;2022-11-09T06:59:19;96113.53;;;8.96;97.94
51083;BME280;37131;42.694;23.350;2022-11-09T07:01:44;96163.94;;;9.23;98.47
51083;BME280;37131;42.694;23.350;2022-11-09T07:04:12;96144.78;;;9.38;97.65
51083;BME280;37131;42.694;23.350;2022-11-09T07:06:39;96103.69;;;9.26;96.61
51083;BME280;37131;42.694;23.350;2022-11-09T07:09:04;96144.94;;;9.91;94.98
51083;BME280;37131;42.694;23.350;2022-11-09T07:11:30;96153.94;;;9.89;91.66
51083;BME280;37131;42.694;23.350;2022-11-09T07:13:55;96154.66;;;9.62;94.01
51083;BME280;37131;42.694;23.350;2022-11-09T07:16:20;96151.28;;;9.62;95.12
51083;BME280;37131;42.694;23.350;2022-11-09T07:18:46;96138.69;;;9.72;96.15
51083;BME280;37131;42.694;23.350;2022-11-09T07:21:12;96145.41;;;10.22;94.53
51083;BME280;37131;42.694;23.350;2022-11-09T07:23:37;96139.63;;;10.40;91.23
51083;BME280;37131;42.694;23.350;2022-11-09T07:26:03;96135.97;;;10.74;89.53
51083;BME280;37131;42.694;23.350;2022-11-09T07:28:28;96139.59;;;10.73;89.12
51083;BME280;37131;42.694;23.350;2022-11-09T07:30:56;96126.13;;;10.83;88.61
51083;BME280;37131;42.694;23.350;2022-11-09T07:33:21;96133.34;;;10.94;86.85
51083;BME280;37131;42.694;23.350;2022-11-09T07:35:47;96127.69;;;11.11;84.71
51083;BME280;37131;42.694;23.350;2022-11-09T07:38:13;96137.03;;;11.32;83.73
51083;BME280;37131;42.694;23.350;2022-11-09T07:40:39;96134.00;;;11.41;83.33
51083;BME280;37131;42.694;23.350;2022-11-09T07:43:05;96136.56;;;11.48;82.78
51083;BME280;37131;42.694;23.350;2022-11-09T07:45:32;96093.44;;;11.32;82.36
51083;BME280;37131;42.694;23.350;2022-11-09T07:48:00;96133.13;;;11.61;81.56
51083;BME280;37131;42.694;23.350;2022-11-09T07:50:27;96134.72;;;11.62;80.56
51083;BME280;37131;42.694;23.350;2022-11-09T07:52:54;96116.53;;;11.42;80.40
51083;BME280;37131;42.694;23.350;2022-11-09T07:55:21;96136.16;;;11.51;81.86
51083;BME280;37131;42.694;23.350;2022-11-09T07:57:47;96140.31;;;11.72;82.30
51083;BME280;37131;42.694;23.350;2022-11-09T08:00:12;96130.09;;;11.64;83.29
51083;BME280;37131;42.694;23.350;2022-11-09T08:02:39;96134.91;;;11.09;84.52
51083;BME280;37131;42.694;23.350;2022-11-09T08:05:05;96126.91;;;11.03;85.73
51083;BME280;37131;42.694;23.350;2022-11-09T08:07:31;96138.38;;;10.82;86.84
51083;BME280;37131;42.694;23.350;2022-11-09T08:09:57;96135.28;;;11.19;85.96
51083;BME280;37131;42.694;23.350;2022-11-09T08:12:23;96134.13;;;11.60;83.00
51083;BME280;37131;42.694;23.350;2022-11-09T08:14:48;96135.31;;;11.64;81.85
51083;BME280;37131;42.694;23.350;2022-11-09T08:17:13;96139.09;;;11.68;82.16
51083;BME280;37131;42.694;23.350;2022-11-09T08:19:39;96136.38;;;11.95;80.28
51083;BME280;37131;42.694;23.350;2022-11-09T08:22:04;96108.13;;;11.72;79.53
51083;BME280;37131;42.694;23.350;2022-11-09T08:24:30;96130.97;;;12.22;79.61
51083;BME280;37131;42.694;23.350;2022-11-09T08:26:55;96140.59;;;11.89;79.73
51083;BME280;37131;42.694;23.350;2022-11-09T08:29:21;96122.72;;;11.93;80.23
51083;BME280;37131;42.694;23.350;2022-11-09T08:31:50;96136.28;;;11.70;81.79
51083;BME280;37131;42.694;23.350;2022-11-09T08:34:16;96126.25;;;11.67;83.02
51083;BME280;37131;42.694;23.350;2022-11-09T08:36:41;96135.41;;;12.21;80.59
51083;BME280;37131;42.694;23.350;2022-11-09T08:39:08;96132.84;;;12.40;79.40
51083;BME280;37131;42.694;23.350;2022-11-09T08:41:34;96136.81;;;12.24;80.28
51083;BME280;37131;42.694;23.350;2022-11-09T08:44:00;96130.44;;;12.38;78.75
51083;BME280;37131;42.694;23.350;2022-11-09T08:46:25;96131.94;;;11.96;80.46
51083;BME280;37131;42.694;23.350;2022-11-09T08:48:51;96128.03;;;12.11;79.71
51083;BME280;37131;42.694;23.350;2022-11-09T08:51:16;96136.84;;;12.17;79.37
51083;BME280;37131;42.694;23.350;2022-11-09T08:53:41;96133.16;;;12.25;80.46
51083;BME280;37131;42.694;23.350;2022-11-09T08:56:07;96128.31;;;12.28;79.99
51083;BME280;37131;42.694;23.350;2022-11-09T08:58:34;96132.78;;;12.21;78.87
51083;BME280;37131;42.694;23.350;2022-11-09T09:00:59;96129.13;;;12.54;78.41
51083;BME280;37131;42.694;23.350;2022-11-09T09:03:25;96128.09;;;12.99;76.67
51083;BME280;37131;42.694;23.350;2022-11-09T09:05:50;96131.00;;;13.09;75.05
51083;BME280;37131;42.694;23.350;2022-11-09T09:08:16;96126.03;;;12.82;76.50
51083;BME280;37131;42.694;23.350;2022-11-09T09:10:45;96107.06;;;12.87;77.47
51083;BME280;37131;42.694;23.350;2022-11-09T09:13:11;96108.69;;;13.07;76.03
51083;BME280;37131;42.694;23.350;2022-11-09T09:15:36;96127.78;;;12.89;76.33
51083;BME280;37131;42.694;23.350;2022-11-09T09:18:02;96130.00;;;13.10;76.08
51083;BME280;37131;42.694;23.350;2022-11-09T09:20:28;96121.41;;;13.40;75.05
51083;BME280;37131;42.694;23.350;2022-11-09T09:22:56;96120.47;;;13.53;74.12
51083;BME280;37131;42.694;23.350;2022-11-09T09:25:22;96121.91;;;13.67;73.34
51083;BME280;37131;42.694;23.350;2022-11-09T09:27:48;96124.84;;;13.90;71.55
51083;BME280;37131;42.694;23.350;2022-11-09T09:30:14;96116.31;;;14.06;71.43
51083;BME280;37131;42.694;23.350;2022-11-09T09:32:40;96112.28;;;14.34;69.98
51083;BME280;37131;42.694;23.350;2022-11-09T09:35:05;96099.81;;;14.17;70.30
51083;BME280;37131;42.694;23.350;2022-11-09T09:37:31;96114.44;;;13.83;69.88
51083;BME280;37131;42.694;23.350;2022-11-09T09:39:56;96109.09;;;13.59;70.32
51083;BME280;37131;42.694;23.350;2022-11-09T09:42:30;96111.38;;;13.98;70.78
51083;BME280;37131;42.694;23.350;2022-11-09T09:45:12;96102.94;;;14.38;68.99
51083;BME280;37131;42.694;23.350;2022-11-09T09:47:53;96100.34;;;14.62;68.96
51083;BME280;37131;42.694;23.350;2022-11-09T09:50:25;96084.59;;;14.73;67.68
51083;BME280;37131;42.694;23.350;2022-11-09T09:53:00;96096.59;;;14.69;68.18
51083;BME280;37131;42.694;23.350;2022-11-09T09:55:37;96090.75;;;14.79;66.95
51083;BME280;37131;42.694;23.350;2022-11-09T09:58:12;96081.81;;;14.56;66.45
51083;BME280;37131;42.694;23.350;2022-11-09T10:00:38;96081.50;;;14.88;65.85
51083;BME280;37131;42.694;23.350;2022-11-09T10:03:14;96076.22;;;15.00;65.74
51083;BME280;37131;42.694;23.350;2022-11-09T10:05:55;96076.94;;;14.84;66.88
51083;BME280;37131;42.694;23.350;2022-11-09T10:09:29;96085.09;;;13.74;71.37
51083;BME280;37131;42.694;23.350;2022-11-09T10:14:30;96075.09;;;14.61;65.33
51083;BME280;37131;42.694;23.350;2022-11-09T10:20:01;96072.13;;;14.33;67.62
51083;BME280;37131;42.694;23.350;2022-11-09T10:22:51;96075.31;;;14.35;67.18
51083;BME280;37131;42.694;23.350;2022-11-09T10:25:27;96065.75;;;14.77;65.01
51083;BME280;37131;42.694;23.350;2022-11-09T10:28:01;96054.53;;;15.05;63.22
51083;BME280;37131;42.694;23.350;2022-11-09T10:30:28;96021.38;;;14.75;64.26
51083;BME280;37131;42.694;23.350;2022-11-09T10:33:00;96053.66;;;15.28;62.44
51083;BME280;37131;42.694;23.350;2022-11-09T10:35:42;96054.59;;;15.51;62.67
51083;BME280;37131;42.694;23.350;2022-11-09T10:38:14;96054.25;;;15.47;61.98
51083;BME280;37131;42.694;23.350;2022-11-09T10:43:14;96044.00;;;15.91;62.00
51083;BME280;37131;42.694;23.350;2022-11-09T10:45:42;96048.41;;;15.86;60.64
51083;BME280;37131;42.694;23.350;2022-11-09T10:48:09;96044.47;;;15.71;59.40
51083;BME280;37131;42.694;23.350;2022-11-09T10:50:50;96046.44;;;15.64;59.25
51083;BME280;37131;42.694;23.350;2022-11-09T10:53:20;96038.69;;;15.57;61.48
51083;BME280;37131;42.694;23.350;2022-11-09T10:58:45;96031.03;;;16.02;59.23
51083;BME280;37131;42.694;23.350;2022-11-09T11:01:14;96027.38;;;16.20;58.52
51083;BME280;37131;42.694;23.350;2022-11-09T11:03:40;96023.44;;;16.22;57.64
51083;BME280;37131;42.694;23.350;2022-11-09T11:11:34;96023.09;;;15.68;57.90
51083;BME280;37131;42.694;23.350;2022-11-09T11:14:31;96028.09;;;14.83;62.85
51083;BME280;37131;42.694;23.350;2022-11-09T11:16:57;96015.91;;;15.05;62.52
51083;BME280;37131;42.694;23.350;2022-11-09T11:19:33;96010.50;;;15.70;60.27
51083;BME280;37131;42.694;23.350;2022-11-09T11:22:17;96014.22;;;16.03;58.65
51083;BME280;37131;42.694;23.350;2022-11-09T11:25:00;96014.47;;;16.18;58.11
51083;BME280;37131;42.694;23.350;2022-11-09T11:27:40;96006.88;;;16.39;57.61
51083;BME280;37131;42.694;23.350;2022-11-09T11:30:19;95988.00;;;17.08;55.93
51083;BME280;37131;42.694;23.350;2022-11-09T11:32:53;95989.19;;;17.77;53.43
51083;BME280;37131;42.694;23.350;2022-11-09T11:35:39;95992.00;;;17.93;53.61
51083;BME280;37131;42.694;23.350;2022-11-09T11:41:18;95979.53;;;20.29;46.46
51083;BME280;37131;42.694;23.350;2022-11-09T11:46:26;95967.94;;;18.80;48.94
51083;BME280;37131;42.694;23.350;2022-11-09T11:51:41;95978.13;;;19.19;46.81
51083;BME280;37131;42.694;23.350;2022-11-09T11:54:52;95969.44;;;20.42;45.62
51083;BME280;37131;42.694;23.350;2022-11-09T12:16:05;95957.75;;;24.83;34.36
51083;BME280;37131;42.694;23.350;2022-11-09T12:21:24;95958.22;;;23.45;36.44
51083;BME280;37131;42.694;23.350;2022-11-09T12:24:14;95972.66;;;20.23;41.99
51083;BME280;37131;42.694;23.350;2022-11-09T12:30:20;95946.22;;;23.28;36.94
51083;BME280;37131;42.694;23.350;2022-11-09T12:32:34;95950.09;;;21.57;40.77
51083;BME280;37131;42.694;23.350;2022-11-09T12:35:21;95949.03;;;22.21;39.08
51083;BME280;37131;42.694;23.350;2022-11-09T12:37:55;95938.63;;;22.73;37.78
51083;BME280;37131;42.694;23.350;2022-11-09T12:40:25;95957.84;;;19.66;43.73
51083;BME280;37131;42.694;23.350;2022-11-09T12:43:01;95954.38;;;19.34;44.63
51083;BME280;37131;42.694;23.350;2022-11-09T12:45:29;95963.38;;;18.17;47.44
51083;BME280;37131;42.694;23.350;2022-11-09T12:48:00;95950.34;;;19.16;46.33
51083;BME280;37131;42.694;23.350;2022-11-09T12:50:28;95958.78;;;17.97;48.19
51083;BME280;37131;42.694;23.350;2022-11-09T12:52:56;95953.69;;;17.58;50.61
51083;BME280;37131;42.694;23.350;2022-11-09T12:55:46;95958.19;;;17.03;52.21
51083;BME280;37131;42.694;23.350;2022-11-09T12:58:25;95952.03;;;17.19;52.54
51083;BME280;37131;42.694;23.350;2022-11-09T13:03:56;95929.25;;;17.67;50.27
51083;BME280;37131;42.694;23.350;2022-11-09T13:06:25;95941.25;;;17.53;51.29
51083;BME280;37131;42.694;23.350;2022-11-09T13:11:42;95946.69;;;17.14;52.75
51083;BME280;37131;42.694;23.350;2022-11-09T13:14:34;95949.00;;;17.05;53.14
51083;BME280;37131;42.694;23.350;2022-11-09T13:17:49;95945.66;;;17.15;52.80
51083;BME280;37131;42.694;23.350;2022-11-09T13:19:48;95937.97;;;17.08;53.24
51083;BME280;37131;42.694;23.350;2022-11-09T13:24:55;95943.56;;;16.28;56.14
51083;BME280;37131;42.694;23.350;2022-11-09T13:38:20;95939.91;;;16.74;53.85
51083;BME280;37131;42.694;23.350;2022-11-09T13:40:46;95945.25;;;16.57;55.32
51083;BME280;37131;42.694;23.350;2022-11-09T13:45:44;95947.97;;;16.23;56.54
51083;BME280;37131;42.694;23.350;2022-11-09T13:50:50;95942.53;;;16.52;54.43
51083;BME280;37131;42.694;23.350;2022-11-09T13:53:27;95948.63;;;16.52;54.47
51083;BME280;37131;42.694;23.350;2022-11-09T13:55:53;95945.00;;;16.58;53.81
51083;BME280;37131;42.694;23.350;2022-11-09T13:58:36;95939.66;;;16.53;54.11
51083;BME280;37131;42.694;23.350;2022-11-09T14:01:02;95936.63;;;16.61;53.92
51083;BME280;37131;42.694;23.350;2022-11-09T14:03:29;95940.03;;;16.62;53.83
51083;BME280;37131;42.694;23.350;2022-11-09T14:05:59;95931.84;;;16.58;53.62
51083;BME280;37131;42.694;23.350;2022-11-09T14:08:35;95941.75;;;16.51;53.86
51083;BME280;37131;42.694;23.350;2022-11-09T14:14:08;95933.31;;;16.49;54.66
51083;BME280;37131;42.694;23.350;2022-11-09T14:22:13;95941.25;;;16.32;54.83
51083;BME280;37131;42.694;23.350;2022-11-09T14:24:40;95931.69;;;16.26;54.55
51083;BME280;37131;42.694;23.350;2022-11-09T14:29:37;95936.81;;;16.16;55.08